createdAt,value
2018-02-12T00:02:22.490Z,9.80
2018-02-12T00:04:50.049Z,10.20
2018-02-12T00:07:17.608Z,9.30
2018-02-12T00:09:45.168Z,9.23
2018-02-12T00:12:12.728Z,11.23
2018-02-12T00:14:40.287Z,9.80
2018-02-12T00:17:07.846Z,10.50
2018-02-12T00:19:35.303Z,11.30
2018-02-12T00:22:02.797Z,10.53
2018-02-12T00:24:30.319Z,10.63
2018-02-12T00:26:57.879Z,10.10
2018-02-12T00:29:25.438Z,10.43
2018-02-12T00:31:53.818Z,11.10
2018-02-12T00:34:21.377Z,11.17
2018-02-12T00:36:48.936Z,11.20
2018-02-12T00:39:16.495Z,9.90
2018-02-12T00:41:44.055Z,10.30
2018-02-12T00:44:11.614Z,11.27
2018-02-12T00:46:39.173Z,10.30
2018-02-12T00:49:06.668Z,10.73
2018-02-12T00:51:34.197Z,10.93
2018-02-12T00:54:01.750Z,10.87
2018-02-12T00:56:29.207Z,11.10
2018-02-12T00:58:56.766Z,10.93
2018-02-12T01:01:24.259Z,11.30
2018-02-12T01:03:51.782Z,10.47
2018-02-12T01:06:19.342Z,10.53
2018-02-12T01:08:46.835Z,11.50
2018-02-12T01:11:14.361Z,10.30
2018-02-12T01:13:41.956Z,11.70
2018-02-12T01:16:09.477Z,11.10
2018-02-12T01:18:37.037Z,11.20
2018-02-12T01:21:04.596Z,12.17
2018-02-12T01:23:32.155Z,11.90
2018-02-12T01:25:59.715Z,11.87
2018-02-12T01:28:27.274Z,12.10
2018-02-12T01:30:54.833Z,12.03
2018-02-12T01:33:22.344Z,11.27
2018-02-12T01:35:50.055Z,10.80
2018-02-12T01:38:17.614Z,12.17
2018-02-12T01:40:45.048Z,11.00
2018-02-12T01:43:12.564Z,12.07
2018-02-12T01:45:40.088Z,10.53
2018-02-12T01:48:07.647Z,11.33
2018-02-12T01:50:35.206Z,11.10
2018-02-12T01:53:02.644Z,11.27
2018-02-12T01:55:30.171Z,10.83
2018-02-12T01:57:57.782Z,11.33
2018-02-12T02:00:25.343Z,11.53
2018-02-12T02:02:52.907Z,11.07
2018-02-12T02:05:20.564Z,11.20
2018-02-12T02:07:48.056Z,11.20
2018-02-12T02:10:15.580Z,11.60
2018-02-12T02:12:43.139Z,11.43
2018-02-12T02:15:10.700Z,12.03
2018-02-12T02:17:38.155Z,12.67
2018-02-12T02:20:05.716Z,12.17
2018-02-12T02:22:33.274Z,12.03
2018-02-12T02:25:00.732Z,11.60
2018-02-12T02:27:28.234Z,11.30
2018-02-12T02:29:55.748Z,11.40
2018-02-12T02:32:23.240Z,11.17
2018-02-12T02:34:50.867Z,11.80
2018-02-12T02:37:18.361Z,12.03
2018-02-12T02:39:45.883Z,12.03
2018-02-12T02:42:13.443Z,11.47
2018-02-12T02:44:40.899Z,11.80
2018-02-12T02:47:08.392Z,10.97
2018-02-12T02:49:36.018Z,12.00
2018-02-12T02:52:03.477Z,11.20
2018-02-12T02:54:31.046Z,12.53
2018-02-12T02:56:58.595Z,12.37
2018-02-12T02:59:26.156Z,13.50
2018-02-12T03:01:53.648Z,12.83
2018-02-12T03:04:21.272Z,12.77
2018-02-12T03:06:48.831Z,13.10
2018-02-12T03:09:16.324Z,12.87
2018-02-12T03:11:43.792Z,12.23
2018-02-12T03:14:11.192Z,13.40
2018-02-12T03:16:38.762Z,11.67
2018-02-12T03:19:06.205Z,11.97
2018-02-12T03:21:33.779Z,10.77
2018-02-12T03:24:01.338Z,12.10
2018-02-12T03:26:28.898Z,11.83
2018-02-12T03:28:56.457Z,12.03
2018-02-12T03:31:23.915Z,11.97
2018-02-12T03:33:51.348Z,12.33
2018-02-12T03:36:18.760Z,12.27
2018-02-12T03:38:46.285Z,12.30
2018-02-12T03:41:13.691Z,11.60
2018-02-12T03:43:41.133Z,11.50
2018-02-12T03:46:08.603Z,12.20
2018-02-12T03:48:36.048Z,12.73
2018-02-12T03:51:03.503Z,11.13
2018-02-12T03:53:31.129Z,10.90
2018-02-12T03:55:58.689Z,10.97
2018-02-12T03:58:26.248Z,12.17
2018-02-12T04:00:53.635Z,10.63
2018-02-12T04:03:21.097Z,11.07
2018-02-12T04:05:48.621Z,11.07
2018-02-12T04:08:16.181Z,9.77
2018-02-12T04:10:43.636Z,10.23
2018-02-12T04:13:11.196Z,10.27
2018-02-12T04:15:38.755Z,10.23
2018-02-12T04:18:06.212Z,11.03
2018-02-12T04:20:33.675Z,11.07
2018-02-12T04:23:01.166Z,10.13
2018-02-12T04:25:28.688Z,11.20
2018-02-12T04:27:56.246Z,10.73
2018-02-12T04:30:23.804Z,11.80
2018-02-12T04:32:51.262Z,10.57
2018-02-12T04:35:19.333Z,10.70
2018-02-12T04:37:46.893Z,11.70
2018-02-12T04:40:14.308Z,11.17
2018-02-12T04:42:41.909Z,10.27
2018-02-12T04:45:09.468Z,10.70
2018-02-12T04:47:36.964Z,11.57
2018-02-12T04:50:04.588Z,12.00
2018-02-12T04:52:32.147Z,9.50
2018-02-12T04:54:59.653Z,10.63
2018-02-12T04:57:27.244Z,10.47
2018-02-12T04:59:54.668Z,10.73
2018-02-12T05:02:22.095Z,10.57
2018-02-12T05:04:49.555Z,11.30
2018-02-12T05:07:16.962Z,11.10
2018-02-12T05:09:44.388Z,11.40
2018-02-12T05:12:11.940Z,10.50
2018-02-12T05:14:39.376Z,10.60
2018-02-12T05:17:06.799Z,10.70
2018-02-12T05:19:34.379Z,10.07
2018-02-12T05:22:01.939Z,9.53
2018-02-12T05:24:29.498Z,11.60
2018-02-12T05:26:57.058Z,10.30
2018-02-12T05:29:24.616Z,10.83
2018-02-12T05:31:52.075Z,11.20
2018-02-12T05:34:19.633Z,11.10
2018-02-12T05:36:47.193Z,9.23
2018-02-12T05:39:14.752Z,10.30
2018-02-12T05:41:42.311Z,11.00
2018-02-12T05:44:09.871Z,11.20
2018-02-12T05:46:37.431Z,10.90
2018-02-12T05:49:04.990Z,10.97
2018-02-12T05:51:32.447Z,10.60
2018-02-12T05:53:59.847Z,11.73
2018-02-12T05:56:27.464Z,10.50
2018-02-12T05:58:54.923Z,10.37
2018-02-12T06:01:22.377Z,11.40
2018-02-12T06:03:50.041Z,11.30
2018-02-12T06:06:17.599Z,11.43
2018-02-12T06:08:45.158Z,11.13
2018-02-12T06:11:12.652Z,10.37
2018-02-12T06:13:40.175Z,10.87
2018-02-12T06:16:07.668Z,10.77
2018-02-12T06:18:35.294Z,11.80
2018-02-12T06:21:02.751Z,12.57
2018-02-12T06:23:30.311Z,11.70
2018-02-12T06:25:57.869Z,12.00
2018-02-12T06:28:25.326Z,12.17
2018-02-12T06:30:52.898Z,11.30
2018-02-12T06:33:20.381Z,11.00
2018-02-12T06:35:48.106Z,11.97
2018-02-12T06:38:15.669Z,10.90
2018-02-12T06:40:43.226Z,11.13
2018-02-12T06:43:10.786Z,11.33
2018-02-12T06:45:38.345Z,11.23
2018-02-12T06:48:05.770Z,11.20
2018-02-12T06:50:33.360Z,10.87
2018-02-12T06:53:00.920Z,12.30
2018-02-12T06:55:28.481Z,12.10
2018-02-12T06:57:55.937Z,11.90
2018-02-12T07:00:23.602Z,10.97
2018-02-12T07:02:51.012Z,10.70
2018-02-12T07:05:19.233Z,12.20
2018-02-12T07:07:46.790Z,10.87
2018-02-12T07:10:14.349Z,11.80
2018-02-12T07:12:42.566Z,11.00
2018-02-12T07:15:10.047Z,10.33
2018-02-12T07:17:37.504Z,11.33
2018-02-12T07:20:04.940Z,11.10
2018-02-12T07:22:32.418Z,11.00
2018-02-12T07:24:59.840Z,11.13
2018-02-12T07:27:27.257Z,11.07
2018-02-12T07:29:54.744Z,10.40
2018-02-12T07:32:22.151Z,10.30
2018-02-12T07:34:49.585Z,10.27
2018-02-12T07:37:17.036Z,11.40
2018-02-12T07:39:44.512Z,10.40
2018-02-12T07:42:11.990Z,10.20
2018-02-12T07:44:39.440Z,9.47
2018-02-12T07:47:06.892Z,10.90
2018-02-12T07:49:34.323Z,9.23
2018-02-12T07:52:01.768Z,9.73
2018-02-12T07:54:29.177Z,9.07
2018-02-12T07:56:56.704Z,9.20
2018-02-12T07:59:24.361Z,10.30
2018-02-12T08:01:52.625Z,10.10
2018-02-12T08:04:20.659Z,9.57
2018-02-12T08:06:49.092Z,10.60
2018-02-12T08:09:17.416Z,9.50
2018-02-12T08:11:45.899Z,9.17
2018-02-12T08:14:13.866Z,9.07
2018-02-12T08:16:42.290Z,9.40
2018-02-12T08:19:10.316Z,9.20
2018-02-12T08:21:38.491Z,9.63
2018-02-12T08:24:06.601Z,9.70
2018-02-12T08:26:34.631Z,10.63
2018-02-12T08:29:02.499Z,10.10
2018-02-12T08:31:30.366Z,11.17
2018-02-12T08:33:58.131Z,10.70
2018-02-12T08:36:26.359Z,11.00
2018-02-12T08:38:54.170Z,10.97
2018-02-12T08:41:21.734Z,11.07
2018-02-12T08:43:49.957Z,10.70
2018-02-12T08:46:18.487Z,10.30
2018-02-12T08:48:46.817Z,11.67
2018-02-12T08:51:15.141Z,10.40
2018-02-12T08:53:43.321Z,11.23
2018-02-12T08:56:10.808Z,10.40
2018-02-12T08:58:38.212Z,10.83
2018-02-12T09:01:05.787Z,11.00
2018-02-12T09:03:33.346Z,10.87
2018-02-12T09:06:00.907Z,10.23
2018-02-12T09:08:28.570Z,11.00
2018-02-12T09:10:56.575Z,11.00
2018-02-12T09:13:24.715Z,10.30
2018-02-12T09:15:53.051Z,11.20
2018-02-12T09:18:21.259Z,11.03
2018-02-12T09:20:49.516Z,10.20
2018-02-12T09:23:17.306Z,11.00
2018-02-12T09:25:45.583Z,11.90
2018-02-12T09:28:14.029Z,11.83
2018-02-12T09:30:41.826Z,10.80
2018-02-12T09:33:09.900Z,11.20
2018-02-12T09:35:38.278Z,11.10
2018-02-12T09:38:06.149Z,10.00
2018-02-12T09:40:34.011Z,10.47
2018-02-12T09:43:01.884Z,10.60
2018-02-12T09:45:29.538Z,10.20
2018-02-12T09:47:57.404Z,10.60
2018-02-12T09:50:25.477Z,11.00
2018-02-12T09:52:56.830Z,10.83
2018-02-12T09:55:24.796Z,10.70
2018-02-12T09:57:53.115Z,10.00
2018-02-12T10:00:21.500Z,10.47
2018-02-12T10:02:49.777Z,11.53
2018-02-12T10:05:17.893Z,11.23
2018-02-12T10:07:45.591Z,10.20
2018-02-12T10:10:13.234Z,12.13
2018-02-12T10:12:41.497Z,11.03
2018-02-12T10:15:09.015Z,11.40
2018-02-12T10:17:36.945Z,11.07
2018-02-12T10:20:04.526Z,12.00
2018-02-12T10:22:31.953Z,12.23
2018-02-12T10:24:59.406Z,10.83
2018-02-12T10:27:26.836Z,11.97
2018-02-12T10:29:54.244Z,11.50
2018-02-12T10:32:21.703Z,10.90
2018-02-12T10:34:49.129Z,10.93
2018-02-12T10:37:16.561Z,11.10
2018-02-12T10:39:44.131Z,11.27
2018-02-12T10:42:11.560Z,10.90
2018-02-12T10:44:39.009Z,11.37
2018-02-12T10:47:07.288Z,12.00
2018-02-12T10:49:34.684Z,9.83
2018-02-12T10:52:02.107Z,11.57
2018-02-12T10:54:29.560Z,10.63
2018-02-12T10:56:56.972Z,11.23
2018-02-12T10:59:24.434Z,10.27
2018-02-12T11:01:51.866Z,11.63
2018-02-12T11:04:19.679Z,11.03
2018-02-12T11:06:47.152Z,12.93
2018-02-12T11:09:14.589Z,11.13
2018-02-12T11:11:42.032Z,10.13
2018-02-12T11:14:09.500Z,10.87
2018-02-12T11:16:36.932Z,10.87
2018-02-12T11:19:04.348Z,10.23
2018-02-12T11:21:31.803Z,10.10
2018-02-12T11:23:59.288Z,10.00
2018-02-12T11:26:26.848Z,10.37
2018-02-12T11:28:54.410Z,9.87
2018-02-12T11:31:21.834Z,10.03
2018-02-12T11:33:49.236Z,7.97
2018-02-12T11:36:16.712Z,8.97
2018-02-12T11:38:44.172Z,7.00
2018-02-12T11:41:11.692Z,7.97
2018-02-12T11:43:39.251Z,7.57
2018-02-12T11:46:06.810Z,6.47
2018-02-12T11:48:34.385Z,8.33
2018-02-12T11:51:01.865Z,7.37
2018-02-12T11:53:29.322Z,7.87
2018-02-12T11:55:56.747Z,7.77
2018-02-12T11:58:24.301Z,7.67
2018-02-12T12:00:51.757Z,7.33
2018-02-12T12:03:19.324Z,7.73
2018-02-12T12:05:46.876Z,6.80
2018-02-12T12:08:14.367Z,8.30
2018-02-12T12:10:42.097Z,7.70
2018-02-12T12:13:09.659Z,8.20
2018-02-12T12:15:37.159Z,8.70
2018-02-12T12:18:04.776Z,7.10
2018-02-12T12:20:32.336Z,7.90
2018-02-12T12:22:59.997Z,9.10
2018-02-12T12:25:27.557Z,7.80
2018-02-12T12:27:55.115Z,8.60
2018-02-12T12:30:22.779Z,9.10
2018-02-12T12:32:50.337Z,8.03
2018-02-12T12:35:17.897Z,7.70
2018-02-12T12:37:45.559Z,8.27
2018-02-12T12:40:13.052Z,8.00
2018-02-12T12:42:40.508Z,8.30
2018-02-12T12:45:08.135Z,7.33
2018-02-12T12:47:35.694Z,7.43
2018-02-12T12:50:03.253Z,8.80
2018-02-12T12:52:30.824Z,7.50
2018-02-12T12:54:58.372Z,6.90
2018-02-12T12:57:25.980Z,7.20
2018-02-12T12:59:53.506Z,6.73
2018-02-12T13:02:21.050Z,6.83
2018-02-12T13:04:48.610Z,5.70
2018-02-12T13:07:16.272Z,5.60
2018-02-12T13:09:43.831Z,5.77
2018-02-12T13:12:11.390Z,4.37
2018-02-12T13:14:38.792Z,4.80
2018-02-12T13:17:06.304Z,4.37
2018-02-12T13:19:33.864Z,5.10
2018-02-12T13:22:01.323Z,5.40
2018-02-12T13:24:28.779Z,4.33
2018-02-12T13:26:56.441Z,4.43
2018-02-12T13:29:23.998Z,4.63
2018-02-12T13:31:51.698Z,4.10
2018-02-12T13:34:19.221Z,4.10
2018-02-12T13:36:46.826Z,4.30
2018-02-12T13:39:14.339Z,4.23
2018-02-12T13:41:41.898Z,3.97
2018-02-12T13:44:09.458Z,4.50
2018-02-12T13:46:36.916Z,4.30
2018-02-12T13:49:04.578Z,4.10
2018-02-12T13:51:32.136Z,4.50
2018-02-12T13:53:59.697Z,3.90
2018-02-12T13:56:27.390Z,3.83
2018-02-12T13:58:54.832Z,4.60
2018-02-12T14:01:22.374Z,4.60
2018-02-12T14:03:49.933Z,3.30
2018-02-12T14:06:17.391Z,4.37
2018-02-12T14:08:44.951Z,3.70
2018-02-12T14:11:12.509Z,3.70
2018-02-12T14:13:40.069Z,3.80
2018-02-12T14:16:07.482Z,3.50
2018-02-12T14:18:34.916Z,4.07
2018-02-12T14:21:02.367Z,4.00
2018-02-12T14:23:30.207Z,3.87
2018-02-12T14:25:57.604Z,4.50
2018-02-12T14:28:25.120Z,3.67
2018-02-12T14:30:52.678Z,3.40
2018-02-12T14:33:20.238Z,3.43
2018-02-12T14:35:47.797Z,3.80
2018-02-12T14:38:15.356Z,4.00
2018-02-12T14:40:42.805Z,3.67
2018-02-12T14:43:10.234Z,4.13
2018-02-12T14:45:37.833Z,4.33
2018-02-12T14:48:05.389Z,4.10
2018-02-12T14:50:32.948Z,4.77
2018-02-12T14:53:00.391Z,4.43
2018-02-12T14:55:27.896Z,4.60
2018-02-12T14:57:55.422Z,4.93
2018-02-12T15:00:23.084Z,4.33
2018-02-12T15:02:50.643Z,4.87
2018-02-12T15:05:18.137Z,4.87
2018-02-12T15:07:45.555Z,4.50
2018-02-12T15:10:13.000Z,4.90
2018-02-12T15:12:40.433Z,4.67
2018-02-12T15:15:07.833Z,4.60
2018-02-12T15:17:35.253Z,5.07
2018-02-12T15:20:02.708Z,5.07
2018-02-12T15:22:30.104Z,5.13
2018-02-12T15:24:57.502Z,5.47
2018-02-12T15:27:24.997Z,5.00
2018-02-12T15:29:52.464Z,5.20
2018-02-12T15:32:19.864Z,5.37
2018-02-12T15:34:47.312Z,5.30
2018-02-12T15:37:14.717Z,4.93
2018-02-12T15:39:42.165Z,5.27
2018-02-12T15:42:09.600Z,5.27
2018-02-12T15:44:36.997Z,4.70
2018-02-12T15:47:04.424Z,5.40
2018-02-12T15:49:31.875Z,4.90
2018-02-12T15:51:59.272Z,4.43
2018-02-12T15:54:26.728Z,4.17
2018-02-12T15:56:54.157Z,4.40
2018-02-12T15:59:21.584Z,4.53
2018-02-12T16:01:49.013Z,4.77
2018-02-12T16:04:16.411Z,5.67
2018-02-12T16:06:43.969Z,4.80
2018-02-12T16:09:11.367Z,5.53
2018-02-12T16:11:38.772Z,5.63
2018-02-12T16:14:06.236Z,5.30
2018-02-12T16:16:33.682Z,5.13
2018-02-12T16:19:01.152Z,6.17
2018-02-12T16:21:28.708Z,5.67
2018-02-12T16:23:56.144Z,5.30
2018-02-12T16:26:23.565Z,5.00
2018-02-12T16:28:51.104Z,6.13
2018-02-12T16:31:18.528Z,5.83
2018-02-12T16:33:46.116Z,5.73
2018-02-12T16:36:13.565Z,6.30
2018-02-12T16:38:41.024Z,6.27
2018-02-12T16:41:08.428Z,5.57
2018-02-12T16:43:35.853Z,5.17
2018-02-12T16:46:03.279Z,5.57
2018-02-12T16:48:30.737Z,5.83
2018-02-12T16:50:58.143Z,6.00
2018-02-12T16:53:25.544Z,5.70
2018-02-12T16:55:56.942Z,5.30
2018-02-12T16:58:24.436Z,6.50
2018-02-12T17:00:51.959Z,6.43
2018-02-12T17:03:19.519Z,7.10
2018-02-12T17:05:47.078Z,7.17
2018-02-12T17:08:14.505Z,7.70
2018-02-12T17:10:41.925Z,6.33
2018-02-12T17:13:09.449Z,5.33
2018-02-12T17:15:37.009Z,6.07
2018-02-12T17:18:04.504Z,6.13
2018-02-12T17:20:32.026Z,6.60
2018-02-12T17:22:59.585Z,7.03
2018-02-12T17:25:27.145Z,6.20
2018-02-12T17:27:54.703Z,6.87
2018-02-12T17:30:22.112Z,6.33
2018-02-12T17:32:49.618Z,6.00
2018-02-12T17:35:17.177Z,6.50
2018-02-12T17:37:44.736Z,6.87
2018-02-12T17:40:12.296Z,5.90
2018-02-12T17:42:39.753Z,6.33
2018-02-12T17:45:07.244Z,6.07
2018-02-12T17:47:34.707Z,6.90
2018-02-12T17:50:02.172Z,7.00
2018-02-12T17:52:29.786Z,6.47
2018-02-12T17:54:57.344Z,8.23
2018-02-12T17:57:24.839Z,6.80
2018-02-12T17:59:52.320Z,6.23
2018-02-12T18:02:19.922Z,6.50
2018-02-12T18:04:48.197Z,6.80
2018-02-12T18:07:15.763Z,7.10
2018-02-12T18:09:43.251Z,6.90
2018-02-12T18:12:10.670Z,7.20
2018-02-12T18:14:38.229Z,5.87
2018-02-12T18:17:06.302Z,6.63
2018-02-12T18:19:33.759Z,6.20
2018-02-12T18:22:01.421Z,6.20
2018-02-12T18:24:28.928Z,5.93
2018-02-12T18:26:56.436Z,6.30
2018-02-12T18:29:23.996Z,5.77
2018-02-12T18:31:51.458Z,6.13
2018-02-12T18:34:19.665Z,6.93
2018-02-12T18:36:47.120Z,6.10
2018-02-12T18:39:14.643Z,7.27
2018-02-12T18:41:42.203Z,6.43
2018-02-12T18:44:09.762Z,8.40
2018-02-12T18:46:37.322Z,6.70
2018-02-12T18:49:04.828Z,7.40
2018-02-12T18:51:32.339Z,6.10
2018-02-12T18:53:59.848Z,7.30
2018-02-12T18:56:27.305Z,7.77
2018-02-12T18:58:54.756Z,7.90
2018-02-12T19:01:22.156Z,7.73
2018-02-12T19:03:49.730Z,7.60
2018-02-12T19:06:17.286Z,8.37
2018-02-12T19:08:44.844Z,8.03
2018-02-12T19:11:12.405Z,9.00
2018-02-12T19:13:39.964Z,8.80
2018-02-12T19:16:07.523Z,9.03
2018-02-12T19:18:34.981Z,8.70
2018-02-12T19:21:02.540Z,7.17
2018-02-12T19:23:30.099Z,7.97
2018-02-12T19:25:57.658Z,8.23
2018-02-12T19:28:25.217Z,7.70
2018-02-12T19:30:52.711Z,6.80
2018-02-12T19:33:20.234Z,6.70
2018-02-12T19:35:47.798Z,7.60
2018-02-12T19:38:15.353Z,6.97
2018-02-12T19:40:42.911Z,8.43
2018-02-12T19:43:10.368Z,8.10
2018-02-12T19:45:37.826Z,8.50
2018-02-12T19:48:05.396Z,8.90
2018-02-12T19:50:32.956Z,8.40
2018-02-12T19:53:00.506Z,8.10
2018-02-12T19:55:28.064Z,8.93
2018-02-12T19:57:55.557Z,8.63
2018-02-12T20:00:23.028Z,8.10
2018-02-12T20:02:50.640Z,8.20
2018-02-12T20:05:18.239Z,8.27
2018-02-12T20:07:45.862Z,8.70
2018-02-12T20:10:14.129Z,9.37
2018-02-12T20:12:41.696Z,9.53
2018-02-12T20:15:09.255Z,10.00
2018-02-12T20:17:36.816Z,8.30
2018-02-12T20:20:04.375Z,10.10
2018-02-12T20:22:31.833Z,10.00
2018-02-12T20:24:59.392Z,10.20
2018-02-12T20:27:26.951Z,9.77
2018-02-12T20:29:54.616Z,9.10
2018-02-12T20:32:22.209Z,11.13
2018-02-12T20:34:49.732Z,11.60
2018-02-12T20:37:17.393Z,20.60
2018-02-12T20:39:44.952Z,14.93
2018-02-12T20:42:12.512Z,10.03
2018-02-12T20:44:39.969Z,10.60
2018-02-12T20:47:07.529Z,9.23
2018-02-12T20:49:35.087Z,8.63
2018-02-12T20:52:02.546Z,10.63
2018-02-12T20:54:30.105Z,11.00
2018-02-12T20:56:57.663Z,10.57
2018-02-12T20:59:25.735Z,9.50
2018-02-12T21:01:53.228Z,9.87
2018-02-12T21:04:20.688Z,9.57
2018-02-12T21:06:48.087Z,9.47
2018-02-12T21:09:15.677Z,9.67
2018-02-12T21:11:43.225Z,8.37
2018-02-12T21:14:10.785Z,9.40
2018-02-12T21:16:38.344Z,9.33
2018-02-12T21:19:05.907Z,8.53
2018-02-12T21:21:33.462Z,9.23
2018-02-12T21:24:01.022Z,9.27
2018-02-12T21:26:28.581Z,10.10
2018-02-12T21:28:55.992Z,8.73
2018-02-12T21:31:27.079Z,8.53
2018-02-12T21:33:54.741Z,8.50
2018-02-12T21:36:22.236Z,8.83
2018-02-12T21:38:49.692Z,9.67
2018-02-12T21:41:17.216Z,9.70
2018-02-12T21:43:44.774Z,8.80
2018-02-12T21:46:12.334Z,8.77
2018-02-12T21:48:39.893Z,8.70
2018-02-12T21:51:07.453Z,8.77
2018-02-12T21:53:34.911Z,8.77
2018-02-12T21:56:02.469Z,8.70
2018-02-12T21:58:30.029Z,8.43
2018-02-12T22:00:57.519Z,9.40
2018-02-12T22:03:24.963Z,8.60
2018-02-12T22:05:52.507Z,8.33
2018-02-12T22:08:20.062Z,8.37
2018-02-12T22:10:47.723Z,8.63
2018-02-12T22:13:15.282Z,9.43
2018-02-12T22:15:42.841Z,11.47
2018-02-12T22:18:10.402Z,9.60
2018-02-12T22:20:37.857Z,10.40
2018-02-12T22:23:05.418Z,10.40
2018-02-12T22:25:32.876Z,12.20
2018-02-12T22:28:00.438Z,10.90
2018-02-12T22:30:27.994Z,11.53
2018-02-12T22:32:55.553Z,12.80
2018-02-12T22:35:23.112Z,10.77
2018-02-12T22:37:50.676Z,10.77
2018-02-12T22:40:18.231Z,11.60
2018-02-12T22:42:45.726Z,11.33
2018-02-12T22:45:13.388Z,10.47
2018-02-12T22:47:40.910Z,11.50
2018-02-12T22:50:08.404Z,10.63
2018-02-12T22:52:36.131Z,11.20
2018-02-12T22:55:03.632Z,10.20
2018-02-12T22:57:31.251Z,9.20
2018-02-12T22:59:58.810Z,11.30
2018-02-12T23:02:26.267Z,10.07
2018-02-12T23:04:53.929Z,9.80
2018-02-12T23:07:21.487Z,9.57
2018-02-12T23:09:49.048Z,10.00
2018-02-12T23:12:16.544Z,9.40
2018-02-12T23:14:43.984Z,9.97
2018-02-12T23:17:15.279Z,9.03
2018-02-12T23:19:42.862Z,9.40
2018-02-12T23:22:10.428Z,9.10
2018-02-12T23:24:37.923Z,10.33
2018-02-12T23:27:05.445Z,9.53
2018-02-12T23:29:33.005Z,9.00
2018-02-12T23:32:00.563Z,8.40
2018-02-12T23:34:28.123Z,9.23
2018-02-12T23:36:55.682Z,10.17
2018-02-12T23:39:23.242Z,8.50
2018-02-12T23:41:50.801Z,8.90
2018-02-12T23:44:18.310Z,8.90
2018-02-12T23:46:45.772Z,8.60
2018-02-12T23:49:13.301Z,9.83
2018-02-12T23:51:40.835Z,8.77
2018-02-12T23:54:08.429Z,9.43
2018-02-12T23:56:35.953Z,10.00
2018-02-12T23:59:03.512Z,9.60
